Flight Track Log - Related Links

Times and Time Zones

All times are in EDT time to prevent confusion due to time zone crossing. See the CSN6337 flight status page for this flight to view local times or setup timezone preferences in your user account.

Time Position Orientation Groundspeed Altitude Reporting Facility
EDT Latitude Longitude Course Direction KTS MPH feet Rate Location/Type
Thu 10:16:00 PM 22.7339 113.8501 20° North  Level Estimated
Thu 10:17:00 PM 22.8283 113.8879 20° North  Level Estimated
Thu 10:18:00 PM 22.9227 113.9257 20° North  Level Estimated
Thu 10:19:00 PM 23.0171 113.9635 20° North  Level Estimated
Thu 10:20:00 PM 23.1115 114.0015 20° North  Level Estimated
Thu 10:21:00 PM 23.2059 114.0394 20° North  Level Estimated
Thu 10:22:00 PM 23.3002 114.0775 20° North  Level Estimated
Thu 10:23:00 PM 23.3935 114.1151 20° North  Level Estimated
Thu 10:24:00 PM 23.4868 114.1528 20° North  Level Estimated
Thu 10:25:00 PM 23.5801 114.1906 20° North  Level Estimated
Thu 10:26:00 PM 23.6733 114.2284 20° North  Level Estimated
Thu 10:27:00 PM 23.7666 114.2662 20° North  Level Estimated
Thu 10:28:00 PM 23.8598 114.3041 20° North  Level Estimated
Thu 10:29:00 PM 23.9531 114.3421 20° North  Level Estimated
Thu 10:30:00 PM 24.0463 114.3801 20° North  Level Estimated
Thu 10:31:00 PM 24.1395 114.4182 20° North  Level Estimated
Thu 10:32:00 PM 24.2327 114.4563 20° North  Level Estimated
Thu 10:33:00 PM 24.3259 114.4945 20° North  Level Estimated
Thu 10:34:00 PM 24.4191 114.5328 20° North  Level Estimated
Thu 10:35:00 PM 24.5123 114.5711 21° North  Level Estimated
Thu 10:36:00 PM 24.6055 114.6094 21° North  Level Estimated
Thu 10:37:00 PM 24.6986 114.6479 21° North  Level Estimated
Thu 10:38:00 PM 24.7918 114.6863 21° North  Level Estimated
Thu 10:39:00 PM 24.8849 114.7249 21° North  Level Estimated
Thu 10:40:00 PM 24.9781 114.7635 21° North  Level Estimated
Thu 10:41:00 PM 25.0712 114.8021 21° North  Level Estimated
Thu 10:42:00 PM 25.1643 114.8408 21° North  Level Estimated
Thu 10:43:00 PM 25.2574 114.8796 21° North  Level Estimated
Thu 10:44:00 PM 25.3505 114.9184 21° North  Level Estimated
Thu 10:45:00 PM 25.4436 114.9573 21° North  Level Estimated
Thu 10:46:00 PM 25.5366 114.9962 21° North  Level Estimated
Thu 10:47:00 PM 25.6297 115.0352 21° North  Level Estimated
Thu 10:48:00 PM 25.7227 115.0743 21° North  Level Estimated
Thu 10:49:00 PM 25.8158 115.1134 21° North  Level Estimated
Thu 10:50:00 PM 25.9088 115.1526 21° North  Level Estimated
Thu 10:51:00 PM 26.0018 115.1919 21° North  Level Estimated
Thu 10:52:00 PM 26.0948 115.2312 21° North  Level Estimated
Thu 10:53:00 PM 26.1878 115.2706 21° North  Level Estimated
Thu 10:54:00 PM 26.2808 115.3100 21° North  Level Estimated
Thu 10:55:00 PM 26.3738 115.3495 21° North  Level Estimated
Thu 10:56:00 PM 26.4667 115.3891 21° North  Level Estimated
Thu 10:57:00 PM 26.5597 115.4287 21° North  Level Estimated
Thu 10:58:00 PM 26.6526 115.4684 21° North  Level Estimated
Thu 10:59:00 PM 26.7456 115.5082 21° North  Level Estimated
Thu 11:00:00 PM 26.8385 115.5480 21° North  Level Estimated
Thu 11:01:00 PM 26.9314 115.5879 21° North  Level Estimated
Thu 11:02:00 PM 27.0243 115.6279 21° North  Level Estimated
Thu 11:03:00 PM 27.1172 115.6679 21° North  Level Estimated
Thu 11:04:00 PM 27.2101 115.7080 21° North  Level Estimated
Thu 11:05:00 PM 27.3029 115.7481 21° North  Level Estimated
Thu 11:06:00 PM 27.3958 115.7884 21° North  Level Estimated
Thu 11:07:00 PM 27.4886 115.8286 21° North  Level Estimated
Thu 11:08:00 PM 27.5814 115.8690 21° North  Level Estimated
Thu 11:09:00 PM 27.6743 115.9094 21° North  Level Estimated
Thu 11:10:00 PM 27.7671 115.9499 21° North  Level Estimated
Thu 11:11:00 PM 27.8599 115.9905 21° North  Level Estimated
Thu 11:12:00 PM 27.9526 116.0311 21° North  Level Estimated
Thu 11:13:00 PM 28.0454 116.0718 21° North  Level Estimated
Thu 11:14:00 PM 28.1382 116.1126 21° North  Level Estimated
Thu 11:15:00 PM 28.2309 116.1534 21° North  Level Estimated
Thu 11:16:00 PM 28.3237 116.1944 21° North  Level Estimated
Thu 11:17:00 PM 28.4164 116.2354 21° North  Level Estimated
Thu 11:18:00 PM 28.5091 116.2764 21° North  Level Estimated
Thu 11:19:00 PM 28.6018 116.3175 21° North  Level Estimated
Thu 11:20:00 PM 28.6945 116.3587 21° North  Level Estimated
Thu 11:21:00 PM 28.7871 116.4000 21° North  Level Estimated
Thu 11:22:00 PM 28.8798 116.4414 21° North  Level Estimated
Thu 11:23:00 PM 28.9724 116.4828 21° North  Level Estimated
Thu 11:24:00 PM 29.0651 116.5243 21° North  Level Estimated
Thu 11:25:00 PM 29.1577 116.5659 21° North  Level Estimated
Thu 11:26:00 PM 29.2503 116.6075 21° North  Level Estimated
Thu 11:27:00 PM 29.3429 116.6492 21° North  Level Estimated
Thu 11:28:00 PM 29.4355 116.6910 21° North  Level Estimated
Thu 11:29:00 PM 29.5280 116.7329 21° North  Level Estimated
Thu 11:30:00 PM 29.6206 116.7749 22° Northeast  Level Estimated
Thu 11:31:00 PM 29.7132 116.8169 22° Northeast  Level Estimated
Thu 11:32:00 PM 29.8057 116.8590 22° Northeast  Level Estimated
Thu 11:33:00 PM 29.8982 116.9012 22° Northeast  Level Estimated
Thu 11:34:00 PM 29.9907 116.9435 22° Northeast  Level Estimated
Thu 11:35:00 PM 30.0832 116.9858 22° Northeast  Level Estimated
Thu 11:36:00 PM 30.1757 117.0282 22° Northeast  Level Estimated
Thu 11:37:00 PM 30.2681 117.0707 22° Northeast  Level Estimated
Thu 11:38:00 PM 30.3606 117.1133 22° Northeast  Level Estimated
Thu 11:39:00 PM 30.4530 117.1560 22° Northeast  Level Estimated
Thu 11:40:00 PM 30.5454 117.1987 22° Northeast  Level Estimated
Thu 11:41:00 PM 30.6378 117.2415 22° Northeast  Level Estimated
Thu 11:42:00 PM 30.7302 117.2844 22° Northeast  Level Estimated
Thu 11:43:00 PM 30.8226 117.3274 22° Northeast  Level Estimated
Thu 11:44:00 PM 30.9150 117.3705 22° Northeast  Level Estimated
Thu 11:45:00 PM 31.0073 117.4137 22° Northeast  Level Estimated
Thu 11:46:00 PM 31.0996 117.4569 22° Northeast  Level Estimated
Thu 11:47:00 PM 31.1920 117.5002 22° Northeast  Level Estimated
Thu 11:48:00 PM 31.2843 117.5436 22° Northeast  Level Estimated
Thu 11:49:00 PM 31.3766 117.5871 22° Northeast  Level Estimated
Thu 11:50:00 PM 31.4688 117.6307 22° Northeast  Level Estimated
Thu 11:51:00 PM 31.5611 117.6744 22° Northeast  Level Estimated
Thu 11:52:00 PM 31.6534 117.7181 22° Northeast  Level Estimated
Thu 11:53:00 PM 31.7456 117.7620 22° Northeast  Level Estimated
Thu 11:54:00 PM 31.8378 117.8059 22° Northeast  Level Estimated
Thu 11:55:00 PM 31.9300 117.8499 22° Northeast  Level Estimated
Thu 11:56:00 PM 32.0222 117.8940 22° Northeast  Level Estimated
Thu 11:57:00 PM 32.1144 117.9382 22° Northeast  Level Estimated
Thu 11:58:00 PM 32.2065 117.9825 22° Northeast  Level Estimated
Thu 11:59:00 PM 32.2987 118.0268 22° Northeast  Level Estimated
Fri 12:00:00 AM 32.3908 118.0713 22° Northeast  Level Estimated
Fri 12:01:00 AM 32.4829 118.1159 22° Northeast  Level Estimated
Fri 12:02:00 AM 32.5750 118.1605 22° Northeast  Level Estimated
Fri 12:03:00 AM 32.6671 118.2052 22° Northeast  Level Estimated
Fri 12:04:00 AM 32.7591 118.2501 22° Northeast  Level Estimated
Fri 12:05:00 AM 32.8512 118.2950 22° Northeast  Level Estimated
Fri 12:06:00 AM 32.9432 118.3400 22° Northeast  Level Estimated
Fri 12:07:00 AM 33.0352 118.3851 22° Northeast  Level Estimated
Fri 12:08:00 AM 33.1272 118.4303 22° Northeast  Level Estimated
Fri 12:09:00 AM 33.2192 118.4756 22° Northeast  Level Estimated
Fri 12:10:00 AM 33.3112 118.5210 22° Northeast  Level Estimated
Fri 12:11:00 AM 33.4031 118.5665 22° Northeast  Level Estimated
Fri 12:12:00 AM 33.4950 118.6121 22° Northeast  Level Estimated
Fri 12:13:00 AM 33.5870 118.6577 22° Northeast  Level Estimated
Fri 12:14:00 AM 33.6789 118.7035 23° Northeast  Level Estimated
Fri 12:15:00 AM 33.7707 118.7494 23° Northeast  Level Estimated
Fri 12:16:00 AM 33.8626 118.7953 23° Northeast  Level Estimated
Fri 12:17:00 AM 33.9545 118.8414 23° Northeast  Level Estimated
Fri 12:18:00 AM 34.0463 118.8876 23° Northeast  Level Estimated
Fri 12:19:00 AM 34.1381 118.9339 23° Northeast  Level Estimated
Fri 12:20:00 AM 34.2299 118.9802 23° Northeast  Level Estimated
Fri 12:21:00 AM 34.3217 119.0267 23° Northeast  Level Estimated
Fri 12:22:00 AM 34.4134 119.0733 23° Northeast  Level Estimated
Fri 12:23:00 AM 34.5052 119.1200 23° Northeast  Level Estimated
Fri 12:24:00 AM 34.5969 119.1667 23° Northeast  Level Estimated
Fri 12:25:00 AM 34.6886 119.2136 23° Northeast  Level Estimated
Fri 12:26:00 AM 34.7803 119.2606 23° Northeast  Level Estimated
Fri 12:27:00 AM 34.8720 119.3077 23° Northeast  Level Estimated
Fri 12:28:00 AM 34.9636 119.3549 23° Northeast  Level Estimated
Fri 12:29:00 AM 35.0552 119.4022 23° Northeast  Level Estimated
Fri 12:30:00 AM 35.1469 119.4496 23° Northeast  Level Estimated
Fri 12:31:00 AM 35.2385 119.4971 23° Northeast  Level Estimated
Fri 12:32:00 AM 35.3300 119.5448 23° Northeast  Level Estimated
Fri 12:33:00 AM 35.4216 119.5925 23° Northeast  Level Estimated
Fri 12:34:00 AM 35.5131 119.6403 23° Northeast  Level Estimated
Fri 12:35:00 AM 35.6047 119.6883 23° Northeast  Level Estimated
Fri 12:36:00 AM 35.6962 119.7363 23° Northeast  Level Estimated
Fri 12:37:00 AM 35.7877 119.7845 23° Northeast  Level Estimated
Fri 12:38:00 AM 35.8791 119.8328 23° Northeast  Level Estimated
Fri 12:39:00 AM 35.9706 119.8812 23° Northeast  Level Estimated
Fri 12:40:00 AM 36.0620 119.9297 23° Northeast  Level Estimated
Fri 12:41:00 AM 36.1534 119.9783 23° Northeast  Level Estimated
Fri 12:42:00 AM 36.2448 120.0270 23° Northeast  Level Estimated
Fri 12:43:00 AM 36.3362 120.0759 23° Northeast  Level Estimated
Fri 12:44:00 AM 36.4275 120.1248 23° Northeast  Level Estimated
Fri 12:45:00 AM 36.5188 120.1739 23° Northeast  Level Estimated
Fri 12:46:00 AM 36.6101 120.2231 23° Northeast  Level Estimated
Fri 12:47:00 AM 36.7014 120.2724 23° Northeast  Level Estimated
Fri 12:48:00 AM 36.7927 120.3218 23° Northeast  Level Estimated
Fri 12:49:00 AM 36.8839 120.3714 23° Northeast  Level Estimated
Fri 12:50:00 AM 36.9752 120.4211 24° Northeast  Level Estimated
Fri 12:51:00 AM 37.0664 120.4708 24° Northeast  Level Estimated
Fri 12:52:00 AM 37.1575 120.5207 24° Northeast  Level Estimated
Fri 12:53:00 AM 37.2487 120.5707 24° Northeast  Level Estimated
Fri 12:54:00 AM 37.3399 120.6209 24° Northeast  Level Estimated
Fri 12:55:00 AM 37.4310 120.6712 24° Northeast  Level Estimated
Fri 12:56:00 AM 37.5221 120.7215 24° Northeast  Level Estimated
Fri 12:57:00 AM 37.6131 120.7720 24° Northeast  Level Estimated
Fri 12:58:00 AM 37.7042 120.8227 24° Northeast  Level Estimated
Fri 12:59:00 AM 37.7952 120.8734 24° Northeast  Level Estimated
Fri 01:00:00 AM 37.8862 120.9243 24° Northeast  Level Estimated
Fri 01:01:00 AM 37.9772 120.9753 24° Northeast  Level Estimated
Fri 01:02:00 AM 38.0682 121.0265 24° Northeast  Level Estimated
Fri 01:03:00 AM 38.1591 121.0777 24° Northeast  Level Estimated
Fri 01:04:00 AM 38.2501 121.1291 24° Northeast  Level Estimated
Fri 01:05:00 AM 38.3410 121.1806 24° Northeast  Level Estimated
Fri 01:06:00 AM 38.4319 121.2323 24° Northeast  Level Estimated
Fri 01:07:00 AM 38.5227 121.2841 24° Northeast  Level Estimated
Fri 01:08:00 AM 38.6135 121.3360 24° Northeast  Level Estimated
Fri 01:09:00 AM 38.7043 121.3880 24° Northeast  Level Estimated
Fri 01:10:00 AM 38.7951 121.4402 24° Northeast  Level Estimated
Fri 01:11:00 AM 38.8859 121.4925 24° Northeast  Level Estimated
Fri 01:12:00 AM 38.9657 121.5386 24° Northeast  Level Estimated
Fri 01:13:00 AM 38.9657 121.5386 North  Level Estimated
Fri 01:14:00 AM 38.9657 121.5386 North  Level Estimated
Fri 01:15:00 AM 38.9657 121.5386 North  Level Estimated
Fri 01:16:00 AM 38.9657 121.5386 North  Level Estimated
Fri 01:17:00 AM 38.9657 121.5386 North  Level Estimated
Fri 01:18:00 AM 38.9657 121.5386 North  Level Estimated
Fri 01:19:00 AM 38.9657 121.5386 North  Level Estimated
Fri 01:20:00 AM 38.9657 121.5386 North  Level Estimated
Fri 01:21:00 AM 38.9657 121.5386 North  Level Estimated
Fri 01:22:00 AM 38.9657 121.5386 North  Level Estimated
Fri 01:23:00 AM 38.9657 121.5386 North  Level Estimated
Fri 01:24:00 AM 38.9657 121.5386 North  Level Estimated
Fri 01:25:00 AM 38.9657 121.5386 North  Level Estimated
Fri 01:26:00 AM 38.9657 121.5386 North  Level Estimated

Login

Don't have an account? Register now (free) for customized features, flight alerts, and more!